createdAt,value
2022-09-06T00:01:19.016Z,2.20
2022-09-06T00:03:51.131Z,2.10
2022-09-06T00:06:21.513Z,1.80
2022-09-06T00:08:51.133Z,2.08
2022-09-06T00:11:20.667Z,2.10
2022-09-06T00:13:50.442Z,2.10
2022-09-06T00:16:21.055Z,2.40
2022-09-06T00:18:55.082Z,2.25
2022-09-06T00:21:26.096Z,2.30
2022-09-06T00:23:55.678Z,2.10
2022-09-06T00:26:25.404Z,2.00
2022-09-06T00:28:54.828Z,2.30
2022-09-06T00:31:25.521Z,2.15
2022-09-06T00:33:57.600Z,2.20
2022-09-06T00:36:27.045Z,2.00
2022-09-06T00:38:56.652Z,2.17
2022-09-06T00:41:26.107Z,2.33
2022-09-06T00:43:55.534Z,2.15
2022-09-06T00:46:27.074Z,2.20
2022-09-06T00:49:00.268Z,2.03
2022-09-06T00:51:30.093Z,2.00
2022-09-06T00:53:59.560Z,2.20
2022-09-06T00:56:28.993Z,2.20
2022-09-06T00:58:58.430Z,2.03
2022-09-06T01:01:28.030Z,2.08
2022-09-06T01:04:00.140Z,2.13
2022-09-06T01:06:32.965Z,2.03
2022-09-06T01:09:06.280Z,2.00
2022-09-06T01:11:44.208Z,1.90
2022-09-06T01:14:18.138Z,2.28
2022-09-06T01:16:51.923Z,2.03
2022-09-06T01:19:59.688Z,2.22
2022-09-06T01:22:42.038Z,2.28
2022-09-06T01:25:28.308Z,2.10
2022-09-06T01:28:41.966Z,2.10
2022-09-06T01:31:20.727Z,2.10
2022-09-06T01:33:54.380Z,2.10
2022-09-06T01:36:25.046Z,2.10
2022-09-06T01:38:54.481Z,2.00
2022-09-06T01:41:23.918Z,1.67
2022-09-06T01:43:53.485Z,1.90
2022-09-06T01:46:28.580Z,1.70
2022-09-06T01:49:06.172Z,1.95
2022-09-06T01:51:39.777Z,1.98
2022-09-06T01:54:21.767Z,1.83
2022-09-06T01:56:53.532Z,2.00
2022-09-06T01:59:39.339Z,1.95
2022-09-06T02:02:12.625Z,1.95
2022-09-06T02:04:44.811Z,1.80
2022-09-06T02:07:17.905Z,1.77
2022-09-06T02:09:47.818Z,2.00
2022-09-06T02:12:17.256Z,1.63
2022-09-06T02:14:48.956Z,1.50
2022-09-06T02:17:23.313Z,1.77
2022-09-06T02:19:53.875Z,2.00
2022-09-06T02:22:24.953Z,1.75
2022-09-06T02:24:55.251Z,1.70
2022-09-06T02:27:24.676Z,1.70
2022-09-06T02:29:54.129Z,1.85
2022-09-06T02:32:26.758Z,1.92
2022-09-06T02:34:58.075Z,1.70
2022-09-06T02:37:28.473Z,1.77
2022-09-06T02:39:58.019Z,1.60
2022-09-06T02:42:27.965Z,1.90
2022-09-06T02:44:57.453Z,1.80
2022-09-06T02:47:29.452Z,1.83
2022-09-06T02:49:58.888Z,1.90
2022-09-06T02:52:28.323Z,1.50
2022-09-06T02:54:57.897Z,1.60
2022-09-06T02:57:27.461Z,1.50
2022-09-06T02:59:56.888Z,1.73
2022-09-06T03:02:28.900Z,2.15
2022-09-06T03:04:58.340Z,1.95
2022-09-06T03:07:27.822Z,2.00
2022-09-06T03:09:58.371Z,1.75
2022-09-06T03:12:27.813Z,1.80
2022-09-06T03:14:57.400Z,1.70
2022-09-06T03:17:29.422Z,2.10
2022-09-06T03:19:58.876Z,2.00
2022-09-06T03:22:28.305Z,2.10
2022-09-06T03:24:57.745Z,1.70
2022-09-06T03:27:27.301Z,1.98
2022-09-06T03:29:56.779Z,1.88
2022-09-06T03:32:29.229Z,2.20
2022-09-06T03:34:59.403Z,1.90
2022-09-06T03:37:28.878Z,2.10
2022-09-06T03:39:58.348Z,2.03
2022-09-06T03:42:28.171Z,2.20
2022-09-06T03:44:57.619Z,1.90
2022-09-06T03:47:29.638Z,2.25
2022-09-06T03:49:59.068Z,2.00
2022-09-06T03:52:28.500Z,2.13
2022-09-06T03:54:57.920Z,2.40
2022-09-06T03:57:27.521Z,2.35
2022-09-06T03:59:56.943Z,2.50
2022-09-06T04:02:29.051Z,2.25
2022-09-06T04:04:58.596Z,2.10
2022-09-06T04:07:28.063Z,1.90
2022-09-06T04:09:57.487Z,2.20
2022-09-06T04:12:26.965Z,2.22
2022-09-06T04:14:56.390Z,1.90
2022-09-06T04:17:25.842Z,2.00
2022-09-06T04:19:57.844Z,1.90
2022-09-06T04:22:27.405Z,2.10
2022-09-06T04:24:56.834Z,2.10
2022-09-06T04:27:26.285Z,2.10
2022-09-06T04:29:56.620Z,1.80
2022-09-06T04:32:26.139Z,1.80
2022-09-06T04:34:58.229Z,1.80
2022-09-06T04:37:27.674Z,2.33
2022-09-06T04:39:57.143Z,1.88
2022-09-06T04:42:26.666Z,1.92
2022-09-06T04:44:56.097Z,1.88
2022-09-06T04:47:25.540Z,1.90
2022-09-06T04:49:55.042Z,1.90
2022-09-06T04:52:30.113Z,2.00
2022-09-06T04:54:59.849Z,1.90
2022-09-06T04:57:29.289Z,1.85
2022-09-06T04:59:58.735Z,1.80
2022-09-06T05:02:28.226Z,2.00
2022-09-06T05:04:57.734Z,1.80
2022-09-06T05:07:29.761Z,1.90
2022-09-06T05:09:59.422Z,1.75
2022-09-06T05:12:28.863Z,1.90
2022-09-06T05:14:58.317Z,2.20
2022-09-06T05:17:27.965Z,2.10
2022-09-06T05:19:57.397Z,1.98
2022-09-06T05:22:29.450Z,1.90
2022-09-06T05:24:58.873Z,1.83
2022-09-06T05:27:28.485Z,1.88
2022-09-06T05:29:57.897Z,1.83
2022-09-06T05:32:27.336Z,1.98
2022-09-06T05:34:56.775Z,1.95
2022-09-06T05:37:29.038Z,1.80
2022-09-06T05:40:00.284Z,1.90
2022-09-06T05:42:29.850Z,1.88
2022-09-06T05:44:59.270Z,1.85
2022-09-06T05:47:29.340Z,1.90
2022-09-06T05:49:59.919Z,1.70
2022-09-06T05:52:33.100Z,1.50
2022-09-06T05:55:02.527Z,1.90
2022-09-06T05:57:31.988Z,1.55
2022-09-06T06:00:01.425Z,1.55
2022-09-06T06:02:30.935Z,1.65
2022-09-06T06:05:00.400Z,1.80
2022-09-06T06:07:32.429Z,1.90
2022-09-06T06:10:01.846Z,1.92
2022-09-06T06:12:31.289Z,1.77
2022-09-06T06:15:00.709Z,1.60
2022-09-06T06:17:30.415Z,1.83
2022-09-06T06:19:59.845Z,2.20
2022-09-06T06:22:31.881Z,1.98
2022-09-06T06:25:01.307Z,2.10
2022-09-06T06:27:30.904Z,1.80
2022-09-06T06:30:00.324Z,1.63
2022-09-06T06:32:30.124Z,2.15
2022-09-06T06:34:59.545Z,1.73
2022-09-06T06:37:29.009Z,1.90
2022-09-06T06:40:01.075Z,1.90
2022-09-06T06:42:30.558Z,1.70
2022-09-06T06:45:00.329Z,2.10
2022-09-06T06:47:29.789Z,1.90
2022-09-06T06:49:59.220Z,2.00
2022-09-06T06:52:28.703Z,2.50
2022-09-06T06:55:00.726Z,2.40
2022-09-06T06:57:30.169Z,2.45
2022-09-06T06:59:59.584Z,2.25
2022-09-06T07:02:29.060Z,2.58
2022-09-06T07:04:58.754Z,2.60
2022-09-06T07:12:50.962Z,2.17
2022-09-06T07:15:20.427Z,2.30
2022-09-06T07:17:49.894Z,2.78
2022-09-06T07:20:20.426Z,2.70
2022-09-06T07:22:49.876Z,2.55
2022-09-06T07:25:22.088Z,2.30
2022-09-06T07:27:51.569Z,2.50
2022-09-06T07:30:21.499Z,2.58
2022-09-06T07:32:51.060Z,2.53
2022-09-06T07:35:20.576Z,2.60
2022-09-06T07:37:57.016Z,2.60
2022-09-06T07:40:29.520Z,2.50
2022-09-06T07:42:59.339Z,2.60
2022-09-06T07:45:28.777Z,2.10
2022-09-06T07:47:59.353Z,2.20
2022-09-06T07:53:29.040Z,2.10
2022-09-06T07:56:02.956Z,2.00
2022-09-06T07:58:32.702Z,2.00
2022-09-06T08:01:21.822Z,2.00
2022-09-06T08:03:51.506Z,2.00
2022-09-06T08:06:21.000Z,2.00
2022-09-06T08:08:57.943Z,1.60
2022-09-06T08:11:31.744Z,1.70
2022-09-06T08:14:02.068Z,1.90
2022-09-06T08:16:32.354Z,1.60
2022-09-06T08:19:02.794Z,1.70
2022-09-06T08:21:33.241Z,1.50
2022-09-06T08:24:03.677Z,1.83
2022-09-06T08:26:36.978Z,1.80
2022-09-06T08:29:08.658Z,1.92
2022-09-06T08:31:38.923Z,2.00
2022-09-06T08:34:08.432Z,1.90
2022-09-06T08:36:37.964Z,2.00
2022-09-06T08:39:09.160Z,2.00
2022-09-06T08:41:47.979Z,1.60
2022-09-06T08:47:09.814Z,1.73
2022-09-06T08:49:40.296Z,1.70
2022-09-06T08:53:06.258Z,1.70
2022-09-06T08:55:38.759Z,1.88
2022-09-06T08:58:24.660Z,1.80
2022-09-06T09:00:58.672Z,2.00
2022-09-06T09:03:29.130Z,1.80
2022-09-06T09:05:59.983Z,1.98
2022-09-06T09:11:01.603Z,1.70
2022-09-06T09:13:36.690Z,1.80
2022-09-06T09:16:06.200Z,1.80
2022-09-06T09:18:36.798Z,1.80
2022-09-06T09:21:06.542Z,1.70
2022-09-06T09:23:36.008Z,1.80
2022-09-06T09:26:08.197Z,1.90
2022-09-06T09:28:40.218Z,1.98
2022-09-06T09:31:10.230Z,2.00
2022-09-06T09:33:39.845Z,2.20
2022-09-06T09:36:10.577Z,1.85
2022-09-06T09:38:43.682Z,1.85
2022-09-06T09:41:13.267Z,2.13
2022-09-06T09:43:45.397Z,1.95
2022-09-06T09:46:17.889Z,2.00
2022-09-06T09:48:49.766Z,2.17
2022-09-06T09:51:26.632Z,2.28
2022-09-06T09:53:57.651Z,2.08
2022-09-06T09:56:36.892Z,2.03
2022-09-06T09:59:10.616Z,1.95
2022-09-06T10:01:40.112Z,1.92
2022-09-06T10:07:13.364Z,2.40
2022-09-06T10:09:43.574Z,2.28
2022-09-06T10:12:18.393Z,2.10
2022-09-06T10:14:51.209Z,2.20
2022-09-06T10:17:21.797Z,2.40
2022-09-06T10:19:51.266Z,2.45
2022-09-06T10:22:29.045Z,2.20
2022-09-06T10:25:37.916Z,2.30
2022-09-06T10:28:34.651Z,2.20
2022-09-06T10:31:47.707Z,2.30
2022-09-06T10:34:52.502Z,2.38
2022-09-06T10:37:44.326Z,2.22
2022-09-06T10:40:14.856Z,2.20
2022-09-06T10:42:46.243Z,2.25
2022-09-06T10:45:23.267Z,2.28
2022-09-06T10:48:02.637Z,2.42
2022-09-06T10:50:40.611Z,2.20
2022-09-06T10:53:13.585Z,2.40
2022-09-06T10:55:47.366Z,2.30
2022-09-06T10:58:17.923Z,2.40
2022-09-06T11:00:49.227Z,2.25
2022-09-06T11:06:16.446Z,2.20
2022-09-06T11:08:51.289Z,2.30
2022-09-06T11:11:24.291Z,2.20
2022-09-06T11:13:53.714Z,2.20
2022-09-06T11:16:25.004Z,1.92
2022-09-06T11:18:58.843Z,2.10
2022-09-06T11:21:43.771Z,2.25
2022-09-06T11:24:14.838Z,2.13
2022-09-06T11:26:47.472Z,2.10
2022-09-06T11:29:21.301Z,2.20
2022-09-06T11:34:56.925Z,2.00
2022-09-06T11:37:28.065Z,2.28
2022-09-06T11:43:17.346Z,2.30
2022-09-06T11:45:51.600Z,2.10
2022-09-06T11:48:46.205Z,2.00
2022-09-06T11:51:34.275Z,2.17
2022-09-06T11:54:09.651Z,2.10
2022-09-06T11:56:42.240Z,2.25
2022-09-06T11:59:15.785Z,1.90
2022-09-06T12:01:47.643Z,2.10
2022-09-06T12:04:17.133Z,2.30
2022-09-06T12:07:11.168Z,2.30
2022-09-06T12:09:41.024Z,2.35
2022-09-06T12:12:14.785Z,2.33
2022-09-06T12:14:47.036Z,2.08
2022-09-06T12:17:25.443Z,2.15
2022-09-06T12:19:55.447Z,1.80
2022-09-06T12:23:03.735Z,2.08
2022-09-06T12:25:59.959Z,2.08
2022-09-06T12:28:32.449Z,2.13
2022-09-06T12:31:02.042Z,1.90
2022-09-06T12:33:33.789Z,2.05
2022-09-06T12:36:15.865Z,1.90
2022-09-06T12:38:57.365Z,1.90
2022-09-06T12:41:31.686Z,1.75
2022-09-06T12:44:01.533Z,1.67
2022-09-06T12:46:31.312Z,1.70
2022-09-06T12:49:05.272Z,1.42
2022-09-06T12:51:34.916Z,1.50
2022-09-06T12:54:07.006Z,1.40
2022-09-06T12:56:39.061Z,1.70
2022-09-06T12:59:19.472Z,1.88
2022-09-06T13:02:00.586Z,1.50
2022-09-06T13:04:35.022Z,1.50
2022-09-06T13:07:04.512Z,1.58
2022-09-06T13:09:33.949Z,1.77
2022-09-06T13:12:09.243Z,1.50
2022-09-06T13:14:38.867Z,1.70
2022-09-06T13:17:08.469Z,1.70
2022-09-06T13:19:38.529Z,1.87
2022-09-06T13:22:11.101Z,1.60
2022-09-06T13:24:49.109Z,1.60
2022-09-06T13:27:37.166Z,1.70
2022-09-06T13:30:07.631Z,1.70
2022-09-06T13:35:07.083Z,1.63
2022-09-06T13:37:39.544Z,1.60
2022-09-06T13:41:00.013Z,1.67
2022-09-06T13:43:33.441Z,1.60
2022-09-06T13:46:07.793Z,1.70
2022-09-06T13:48:39.291Z,1.77
2022-09-06T13:51:09.772Z,1.55
2022-09-06T13:53:39.239Z,1.70
2022-09-06T13:56:09.203Z,1.60
2022-09-06T13:58:41.245Z,1.67
2022-09-06T14:01:10.777Z,1.60
2022-09-06T14:03:42.456Z,1.63
2022-09-06T14:06:12.599Z,2.38
2022-09-06T14:09:05.902Z,1.70
2022-09-06T14:11:32.551Z,1.77
2022-09-06T14:14:04.577Z,1.70
2022-09-06T14:16:34.486Z,1.60
2022-09-06T14:19:03.974Z,1.60
2022-09-06T14:21:33.453Z,1.67
2022-09-06T14:24:04.517Z,1.67
2022-09-06T14:26:34.803Z,1.83
2022-09-06T14:29:08.174Z,1.40
2022-09-06T14:31:37.717Z,2.05
2022-09-06T14:34:07.223Z,1.65
2022-09-06T14:36:36.859Z,1.50
2022-09-06T14:39:06.475Z,1.70
2022-09-06T14:41:35.923Z,2.60
2022-09-06T14:44:09.071Z,2.40
2022-09-06T14:46:38.662Z,1.70
2022-09-06T14:49:10.182Z,1.87
2022-09-06T14:51:40.707Z,1.70
2022-09-06T14:54:11.036Z,1.60
2022-09-06T14:56:40.786Z,1.70
2022-09-06T14:59:12.823Z,1.95
2022-09-06T15:01:42.628Z,3.65
2022-09-06T15:04:12.821Z,2.05
2022-09-06T15:06:47.139Z,2.03
2022-09-06T15:09:16.902Z,1.70
2022-09-06T15:11:47.670Z,1.90
2022-09-06T15:14:20.506Z,2.10
2022-09-06T15:16:54.894Z,1.98
2022-09-06T15:19:25.504Z,2.13
2022-09-06T15:21:55.275Z,1.80
2022-09-06T15:24:24.730Z,2.90
2022-09-06T15:26:54.194Z,3.75
2022-09-06T15:29:27.121Z,2.08
2022-09-06T15:31:57.257Z,2.67
2022-09-06T15:34:27.397Z,2.47
2022-09-06T15:36:57.112Z,2.53
2022-09-06T15:39:26.577Z,1.83
2022-09-06T15:41:57.172Z,1.88
2022-09-06T15:46:59.546Z,2.03
2022-09-06T15:49:31.253Z,2.10
2022-09-06T15:52:01.137Z,2.20
2022-09-06T15:54:43.177Z,2.10
2022-09-06T15:57:12.709Z,1.77
2022-09-06T15:59:44.795Z,2.00
2022-09-06T16:02:14.592Z,2.15
2022-09-06T16:04:44.163Z,2.00
2022-09-06T16:07:13.721Z,1.50
2022-09-06T16:09:43.406Z,1.80
2022-09-06T16:12:12.872Z,1.70
2022-09-06T16:14:44.881Z,1.90
2022-09-06T16:17:14.541Z,1.77
2022-09-06T16:19:45.603Z,1.70
2022-09-06T16:22:15.127Z,1.70
2022-09-06T16:24:44.920Z,1.73
2022-09-06T16:27:14.387Z,1.80
2022-09-06T16:29:46.553Z,1.80
2022-09-06T16:32:17.345Z,1.85
2022-09-06T16:34:46.838Z,1.50
2022-09-06T16:37:16.310Z,1.90
2022-09-06T16:39:45.820Z,1.70
2022-09-06T16:42:15.303Z,2.20
2022-09-06T16:44:47.333Z,2.72
2022-09-06T16:47:16.936Z,2.10
2022-09-06T16:49:46.451Z,1.90
2022-09-06T16:52:15.938Z,2.30
2022-09-06T16:54:45.479Z,2.50
2022-09-06T16:57:14.927Z,2.97
2022-09-06T16:59:46.985Z,2.38
2022-09-06T17:02:16.574Z,2.53
2022-09-06T17:04:46.123Z,2.40
2022-09-06T17:07:15.634Z,2.35
2022-09-06T17:09:45.093Z,2.42
2022-09-06T17:12:14.565Z,2.70
2022-09-06T17:14:44.040Z,2.35
2022-09-06T17:17:14.610Z,2.70
2022-09-06T17:19:44.445Z,2.20
2022-09-06T17:22:14.955Z,2.40
2022-09-06T17:24:44.599Z,2.47
2022-09-06T17:27:14.062Z,2.80
2022-09-06T17:29:43.510Z,2.70
2022-09-06T17:32:12.993Z,2.70
2022-09-06T17:34:45.033Z,3.08
2022-09-06T17:37:14.476Z,2.40
2022-09-06T17:39:44.057Z,2.42
2022-09-06T17:42:13.603Z,2.40
2022-09-06T17:44:44.410Z,2.30
2022-09-06T17:49:47.306Z,2.20
2022-09-06T17:52:16.755Z,2.25
2022-09-06T17:54:47.077Z,2.20
2022-09-06T17:57:16.519Z,2.13
2022-09-06T17:59:45.966Z,2.28
2022-09-06T18:02:15.459Z,2.10
2022-09-06T18:04:47.859Z,2.00
2022-09-06T18:07:17.486Z,2.00
2022-09-06T18:09:47.879Z,2.10
2022-09-06T18:12:17.525Z,2.10
2022-09-06T18:14:47.027Z,2.03
2022-09-06T18:17:16.469Z,2.03
2022-09-06T18:19:48.558Z,2.10
2022-09-06T18:22:17.994Z,2.00
2022-09-06T18:24:47.449Z,2.00
2022-09-06T18:27:16.894Z,2.10
2022-09-06T18:29:46.391Z,2.10
2022-09-06T18:32:15.835Z,1.90
2022-09-06T18:34:47.919Z,2.00
2022-09-06T18:37:17.367Z,2.00
2022-09-06T18:39:46.938Z,1.92
2022-09-06T18:42:16.428Z,2.10
2022-09-06T18:44:45.884Z,2.10
2022-09-06T18:47:15.345Z,2.38
2022-09-06T18:49:45.078Z,1.85
2022-09-06T18:52:18.759Z,1.90
2022-09-06T18:54:48.302Z,2.00
2022-09-06T18:57:18.051Z,2.00
2022-09-06T18:59:47.571Z,2.15
2022-09-06T19:02:17.124Z,2.05
2022-09-06T19:04:46.608Z,2.05
2022-09-06T19:07:18.768Z,2.25
2022-09-06T19:09:48.400Z,2.20
2022-09-06T19:12:17.884Z,2.35
2022-09-06T19:14:47.375Z,2.10
2022-09-06T19:17:16.863Z,2.20
2022-09-06T19:19:46.332Z,2.30
2022-09-06T19:22:18.356Z,2.38
2022-09-06T19:24:47.997Z,2.65
2022-09-06T19:27:17.433Z,2.60
2022-09-06T19:29:47.050Z,2.40
2022-09-06T19:32:18.709Z,2.78
2022-09-06T19:34:48.141Z,2.20
2022-09-06T19:37:23.775Z,2.92
2022-09-06T19:39:53.268Z,2.78
2022-09-06T19:42:25.229Z,2.60
2022-09-06T19:44:54.739Z,2.45
2022-09-06T19:47:24.170Z,2.60
2022-09-06T19:49:53.630Z,2.58
2022-09-06T19:52:25.699Z,2.40
2022-09-06T19:54:55.169Z,2.50
2022-09-06T19:57:24.631Z,2.55
2022-09-06T19:59:54.829Z,2.60
2022-09-06T20:02:24.297Z,2.95
2022-09-06T20:04:53.787Z,2.70
2022-09-06T20:07:27.206Z,2.83
2022-09-06T20:09:57.041Z,2.58
2022-09-06T20:12:29.696Z,2.60
2022-09-06T20:14:59.447Z,2.70
2022-09-06T20:17:33.859Z,2.70
2022-09-06T20:20:04.457Z,2.60
2022-09-06T20:22:36.534Z,2.30
2022-09-06T20:25:06.222Z,2.30
2022-09-06T20:27:35.797Z,2.30
2022-09-06T20:30:05.401Z,2.10
2022-09-06T20:32:34.830Z,1.90
2022-09-06T20:35:04.294Z,2.35
2022-09-06T20:37:38.703Z,2.67
2022-09-06T20:40:10.087Z,2.30
2022-09-06T20:42:42.265Z,2.13
2022-09-06T20:45:12.585Z,2.10
2022-09-06T20:47:42.147Z,2.20
2022-09-06T20:50:12.548Z,2.05
2022-09-06T20:52:44.678Z,2.00
2022-09-06T20:55:14.172Z,2.10
2022-09-06T20:57:43.607Z,1.90
2022-09-06T21:00:14.883Z,1.92
2022-09-06T21:02:44.330Z,2.05
2022-09-06T21:05:13.820Z,1.80
2022-09-06T21:07:45.842Z,2.00
2022-09-06T21:10:15.330Z,1.80
2022-09-06T21:12:44.794Z,2.00
2022-09-06T21:15:14.491Z,2.00
2022-09-06T21:17:44.709Z,1.88
2022-09-06T21:20:14.185Z,3.40
2022-09-06T21:22:46.202Z,2.45
2022-09-06T21:25:15.680Z,2.20
2022-09-06T21:27:45.156Z,2.20
2022-09-06T21:30:15.865Z,1.85
2022-09-06T21:32:45.297Z,2.10
2022-09-06T21:35:14.738Z,2.30
2022-09-06T21:37:46.770Z,2.20
2022-09-06T21:40:16.399Z,2.10
2022-09-06T21:42:46.196Z,2.50
2022-09-06T21:45:15.822Z,2.25
2022-09-06T21:47:45.249Z,2.50
2022-09-06T21:50:15.458Z,2.58
2022-09-06T21:52:47.478Z,2.40
2022-09-06T21:55:17.173Z,2.20
2022-09-06T21:57:46.639Z,2.28
2022-09-06T22:00:18.287Z,2.05
2022-09-06T22:02:47.881Z,1.80
2022-09-06T22:05:17.740Z,2.10
2022-09-06T22:07:49.837Z,2.10
2022-09-06T22:10:19.489Z,2.10
2022-09-06T22:12:48.922Z,2.10
2022-09-06T22:15:19.082Z,2.15
2022-09-06T22:17:48.541Z,2.10
2022-09-06T22:20:18.149Z,2.40
2022-09-06T22:22:50.535Z,2.00
2022-09-06T22:25:20.073Z,2.08
2022-09-06T22:27:49.494Z,1.95
2022-09-06T22:30:22.622Z,1.98
2022-09-06T22:32:54.944Z,2.15
2022-09-06T22:35:24.425Z,2.30
2022-09-06T22:37:56.449Z,2.10
2022-09-06T22:40:26.301Z,2.00
2022-09-06T22:42:55.982Z,1.77
2022-09-06T22:45:25.457Z,1.85
2022-09-06T22:47:54.985Z,1.70
2022-09-06T22:50:24.431Z,1.65
2022-09-06T22:52:56.737Z,1.70
2022-09-06T22:55:26.422Z,2.00
2022-09-06T22:57:55.857Z,1.90
2022-09-06T23:00:26.245Z,1.90
2022-09-06T23:02:55.734Z,2.05
2022-09-06T23:05:25.199Z,1.90
2022-09-06T23:07:57.979Z,2.22
2022-09-06T23:10:27.536Z,2.10
2022-09-06T23:12:57.026Z,2.08
2022-09-06T23:15:26.470Z,2.10
2022-09-06T23:17:55.904Z,1.85
2022-09-06T23:20:28.191Z,2.13
2022-09-06T23:23:00.192Z,2.28
2022-09-06T23:25:29.621Z,2.25
2022-09-06T23:28:00.412Z,2.10
2022-09-06T23:30:29.844Z,2.28
2022-09-06T23:32:59.470Z,2.53
2022-09-06T23:35:28.882Z,2.47
2022-09-06T23:38:00.888Z,2.20
2022-09-06T23:40:30.331Z,2.38
2022-09-06T23:42:59.750Z,2.70
2022-09-06T23:45:29.308Z,2.35
2022-09-06T23:47:58.710Z,2.53
2022-09-06T23:50:28.147Z,2.50
2022-09-06T23:53:00.162Z,2.35
2022-09-06T23:55:29.596Z,2.50
2022-09-06T23:57:59.035Z,2.40
